sensor_id;sensor_type;location;lat;lon;timestamp;pressure;altitude;pressure_sealevel;temperature;humidity
80401;BME280;69727;53.132;8.230;2023-09-19T00:00:01;100455.41;;;14.89;100.00
80401;BME280;69727;53.132;8.230;2023-09-19T00:02:26;100448.53;;;14.84;100.00
80401;BME280;69727;53.132;8.230;2023-09-19T00:04:52;100451.91;;;14.87;100.00
80401;BME280;69727;53.132;8.230;2023-09-19T00:07:18;100474.75;;;14.93;100.00
80401;BME280;69727;53.132;8.230;2023-09-19T00:09:44;100454.03;;;14.79;100.00
80401;BME280;69727;53.132;8.230;2023-09-19T00:12:09;100464.38;;;14.87;100.00
80401;BME280;69727;53.132;8.230;2023-09-19T00:14:35;100481.06;;;14.90;100.00
80401;BME280;69727;53.132;8.230;2023-09-19T00:17:03;100489.13;;;14.89;100.00
80401;BME280;69727;53.132;8.230;2023-09-19T00:19:34;100485.84;;;14.82;100.00
80401;BME280;69727;53.132;8.230;2023-09-19T00:22:00;100482.41;;;14.80;100.00
80401;BME280;69727;53.132;8.230;2023-09-19T00:24:26;100453.75;;;14.65;100.00
80401;BME280;69727;53.132;8.230;2023-09-19T00:26:53;100462.72;;;14.62;100.00
80401;BME280;69727;53.132;8.230;2023-09-19T00:29:21;100483.66;;;14.71;100.00
80401;BME280;69727;53.132;8.230;2023-09-19T00:31:46;100477.53;;;14.69;100.00
80401;BME280;69727;53.132;8.230;2023-09-19T00:34:11;100471.06;;;14.53;100.00
80401;BME280;69727;53.132;8.230;2023-09-19T00:36:37;100495.44;;;14.66;100.00
80401;BME280;69727;53.132;8.230;2023-09-19T00:39:06;100499.81;;;14.67;100.00
80401;BME280;69727;53.132;8.230;2023-09-19T00:41:32;100472.25;;;14.46;100.00
80401;BME280;69727;53.132;8.230;2023-09-19T00:43:59;100475.03;;;14.42;100.00
80401;BME280;69727;53.132;8.230;2023-09-19T00:46:26;100515.31;;;14.55;100.00
80401;BME280;69727;53.132;8.230;2023-09-19T00:48:52;100503.53;;;14.40;100.00
80401;BME280;69727;53.132;8.230;2023-09-19T00:51:17;100507.16;;;14.38;100.00
80401;BME280;69727;53.132;8.230;2023-09-19T00:53:46;100488.09;;;14.27;100.00
80401;BME280;69727;53.132;8.230;2023-09-19T00:56:11;100507.94;;;14.40;100.00
80401;BME280;69727;53.132;8.230;2023-09-19T00:58:38;100500.41;;;14.29;100.00
80401;BME280;69727;53.132;8.230;2023-09-19T01:01:04;100486.59;;;14.19;100.00
80401;BME280;69727;53.132;8.230;2023-09-19T01:03:33;100508.19;;;14.34;100.00
80401;BME280;69727;53.132;8.230;2023-09-19T01:05:59;100526.56;;;14.40;100.00
80401;BME280;69727;53.132;8.230;2023-09-19T01:08:26;100531.72;;;14.45;100.00
80401;BME280;69727;53.132;8.230;2023-09-19T01:11:17;100552.88;;;14.48;100.00
80401;BME280;69727;53.132;8.230;2023-09-19T01:14:10;100508.19;;;14.12;100.00
80401;BME280;69727;53.132;8.230;2023-09-19T01:17:03;100551.41;;;14.40;100.00
80401;BME280;69727;53.132;8.230;2023-09-19T01:25:40;100559.56;;;14.36;100.00
80401;BME280;69727;53.132;8.230;2023-09-19T01:30:57;100568.81;;;14.26;100.00
80401;BME280;69727;53.132;8.230;2023-09-19T01:33:24;100583.69;;;14.31;100.00
80401;BME280;69727;53.132;8.230;2023-09-19T01:35:51;100585.47;;;14.31;100.00
80401;BME280;69727;53.132;8.230;2023-09-19T01:38:19;100561.13;;;14.18;100.00
80401;BME280;69727;53.132;8.230;2023-09-19T01:40:55;100565.72;;;14.14;100.00
80401;BME280;69727;53.132;8.230;2023-09-19T01:43:28;100581.66;;;14.14;100.00
80401;BME280;69727;53.132;8.230;2023-09-19T01:46:10;100577.72;;;14.01;100.00
80401;BME280;69727;53.132;8.230;2023-09-19T01:51:45;100560.56;;;13.86;100.00
80401;BME280;69727;53.132;8.230;2023-09-19T01:54:12;100587.72;;;13.94;100.00
80401;BME280;69727;53.132;8.230;2023-09-19T01:56:59;100593.22;;;13.90;100.00
80401;BME280;69727;53.132;8.230;2023-09-19T01:59:50;100606.59;;;13.86;100.00
80401;BME280;69727;53.132;8.230;2023-09-19T02:02:17;100593.47;;;13.82;100.00
80401;BME280;69727;53.132;8.230;2023-09-19T02:04:43;100562.38;;;13.60;100.00
80401;BME280;69727;53.132;8.230;2023-09-19T02:07:08;100562.78;;;13.49;100.00
80401;BME280;69727;53.132;8.230;2023-09-19T02:09:37;100572.28;;;13.55;100.00
80401;BME280;69727;53.132;8.230;2023-09-19T02:12:04;100598.91;;;13.54;100.00
80401;BME280;69727;53.132;8.230;2023-09-19T02:14:30;100547.72;;;13.23;100.00
80401;BME280;69727;53.132;8.230;2023-09-19T02:16:56;100548.06;;;13.12;100.00
80401;BME280;69727;53.132;8.230;2023-09-19T02:19:21;100597.69;;;13.39;100.00
80401;BME280;69727;53.132;8.230;2023-09-19T02:21:47;100578.59;;;13.26;100.00
80401;BME280;69727;53.132;8.230;2023-09-19T02:24:14;100590.69;;;13.36;100.00
80401;BME280;69727;53.132;8.230;2023-09-19T02:26:40;100575.47;;;13.13;100.00
80401;BME280;69727;53.132;8.230;2023-09-19T02:29:05;100598.16;;;13.23;100.00
80401;BME280;69727;53.132;8.230;2023-09-19T02:31:31;100605.00;;;13.30;100.00
80401;BME280;69727;53.132;8.230;2023-09-19T02:33:56;100611.34;;;13.26;100.00
80401;BME280;69727;53.132;8.230;2023-09-19T02:36:22;100598.31;;;13.19;100.00
80401;BME280;69727;53.132;8.230;2023-09-19T02:38:49;100593.31;;;13.09;100.00
80401;BME280;69727;53.132;8.230;2023-09-19T02:41:14;100622.22;;;13.19;100.00
80401;BME280;69727;53.132;8.230;2023-09-19T02:43:39;100577.22;;;12.87;100.00
80401;BME280;69727;53.132;8.230;2023-09-19T02:46:05;100614.56;;;13.09;100.00
80401;BME280;69727;53.132;8.230;2023-09-19T02:48:30;100584.09;;;12.93;100.00
80401;BME280;69727;53.132;8.230;2023-09-19T02:50:57;100619.66;;;13.15;100.00
80401;BME280;69727;53.132;8.230;2023-09-19T02:53:22;100595.16;;;13.07;100.00
80401;BME280;69727;53.132;8.230;2023-09-19T02:55:49;100607.19;;;13.18;100.00
80401;BME280;69727;53.132;8.230;2023-09-19T02:58:15;100613.66;;;13.10;100.00
80401;BME280;69727;53.132;8.230;2023-09-19T03:00:41;100617.22;;;13.09;100.00
80401;BME280;69727;53.132;8.230;2023-09-19T03:03:12;100623.44;;;13.08;100.00
80401;BME280;69727;53.132;8.230;2023-09-19T03:05:38;100610.44;;;12.99;100.00
80401;BME280;69727;53.132;8.230;2023-09-19T03:08:03;100612.00;;;13.06;100.00
80401;BME280;69727;53.132;8.230;2023-09-19T03:10:30;100608.59;;;13.03;100.00
80401;BME280;69727;53.132;8.230;2023-09-19T03:12:56;100614.69;;;13.05;100.00
80401;BME280;69727;53.132;8.230;2023-09-19T03:15:22;100627.16;;;13.03;100.00
80401;BME280;69727;53.132;8.230;2023-09-19T03:17:48;100617.84;;;12.89;100.00
80401;BME280;69727;53.132;8.230;2023-09-19T03:20:14;100644.00;;;13.02;100.00
80401;BME280;69727;53.132;8.230;2023-09-19T03:22:43;100633.47;;;12.98;100.00
80401;BME280;69727;53.132;8.230;2023-09-19T03:25:09;100634.34;;;12.99;100.00
80401;BME280;69727;53.132;8.230;2023-09-19T03:27:38;100620.56;;;12.88;100.00
80401;BME280;69727;53.132;8.230;2023-09-19T03:30:05;100610.31;;;12.75;100.00
80401;BME280;69727;53.132;8.230;2023-09-19T03:32:34;100631.38;;;12.82;100.00
80401;BME280;69727;53.132;8.230;2023-09-19T03:35:00;100599.81;;;12.72;100.00
80401;BME280;69727;53.132;8.230;2023-09-19T03:37:26;100618.09;;;12.82;100.00
80401;BME280;69727;53.132;8.230;2023-09-19T03:39:51;100610.41;;;12.72;100.00
80401;BME280;69727;53.132;8.230;2023-09-19T03:42:17;100607.16;;;12.64;100.00
80401;BME280;69727;53.132;8.230;2023-09-19T03:44:43;100601.97;;;12.59;100.00
80401;BME280;69727;53.132;8.230;2023-09-19T03:47:09;100616.63;;;12.73;100.00
80401;BME280;69727;53.132;8.230;2023-09-19T03:49:58;100584.72;;;12.46;100.00
80401;BME280;69727;53.132;8.230;2023-09-19T03:52:37;100586.22;;;12.55;100.00
80401;BME280;69727;53.132;8.230;2023-09-19T03:55:03;100600.50;;;12.51;100.00
80401;BME280;69727;53.132;8.230;2023-09-19T03:57:37;100620.28;;;12.69;100.00
80401;BME280;69727;53.132;8.230;2023-09-19T04:00:07;100627.28;;;12.71;100.00
80401;BME280;69727;53.132;8.230;2023-09-19T04:03:16;100648.38;;;12.76;100.00
80401;BME280;69727;53.132;8.230;2023-09-19T04:06:06;100657.19;;;12.76;100.00
80401;BME280;69727;53.132;8.230;2023-09-19T04:09:30;100604.78;;;12.55;100.00
80401;BME280;69727;53.132;8.230;2023-09-19T04:15:55;100635.09;;;12.76;100.00
80401;BME280;69727;53.132;8.230;2023-09-19T04:18:21;100637.81;;;12.74;100.00
80401;BME280;69727;53.132;8.230;2023-09-19T04:20:58;100616.19;;;12.57;100.00
80401;BME280;69727;53.132;8.230;2023-09-19T04:24:06;100606.81;;;12.47;100.00
80401;BME280;69727;53.132;8.230;2023-09-19T04:26:33;100585.59;;;12.47;100.00
80401;BME280;69727;53.132;8.230;2023-09-19T04:29:04;100565.69;;;12.32;100.00
80401;BME280;69727;53.132;8.230;2023-09-19T04:32:08;100607.81;;;12.42;100.00
80401;BME280;69727;53.132;8.230;2023-09-19T04:34:46;100626.94;;;12.52;100.00
80401;BME280;69727;53.132;8.230;2023-09-19T04:37:30;100640.38;;;12.48;100.00
80401;BME280;69727;53.132;8.230;2023-09-19T04:46:38;100626.59;;;12.35;100.00
80401;BME280;69727;53.132;8.230;2023-09-19T04:49:49;100638.91;;;12.37;100.00
80401;BME280;69727;53.132;8.230;2023-09-19T04:55:22;100679.19;;;12.50;100.00
80401;BME280;69727;53.132;8.230;2023-09-19T04:57:49;100614.81;;;12.15;100.00
80401;BME280;69727;53.132;8.230;2023-09-19T05:00:19;100635.94;;;12.18;100.00
80401;BME280;69727;53.132;8.230;2023-09-19T05:02:51;100693.34;;;12.51;100.00
80401;BME280;69727;53.132;8.230;2023-09-19T05:05:17;100644.78;;;12.17;100.00
80401;BME280;69727;53.132;8.230;2023-09-19T05:07:45;100670.78;;;12.36;100.00
80401;BME280;69727;53.132;8.230;2023-09-19T05:10:12;100665.25;;;12.43;99.95
80401;BME280;69727;53.132;8.230;2023-09-19T05:15:52;100705.28;;;12.66;100.00
80401;BME280;69727;53.132;8.230;2023-09-19T05:18:17;100664.25;;;12.48;100.00
80401;BME280;69727;53.132;8.230;2023-09-19T05:20:43;100676.25;;;12.59;100.00
80401;BME280;69727;53.132;8.230;2023-09-19T05:23:09;100679.81;;;12.58;99.78
80401;BME280;69727;53.132;8.230;2023-09-19T05:25:37;100695.50;;;12.66;99.79
80401;BME280;69727;53.132;8.230;2023-09-19T05:28:08;100718.09;;;12.81;99.82
80401;BME280;69727;53.132;8.230;2023-09-19T05:30:35;100696.19;;;12.74;99.96
80401;BME280;69727;53.132;8.230;2023-09-19T05:33:08;100697.75;;;12.80;100.00
80401;BME280;69727;53.132;8.230;2023-09-19T05:35:34;100643.63;;;12.57;100.00
80401;BME280;69727;53.132;8.230;2023-09-19T05:42:04;100707.94;;;12.94;99.93
80401;BME280;69727;53.132;8.230;2023-09-19T05:44:29;100689.13;;;12.73;100.00
80401;BME280;69727;53.132;8.230;2023-09-19T05:46:54;100701.22;;;12.84;100.00
80401;BME280;69727;53.132;8.230;2023-09-19T05:49:22;100668.75;;;12.74;99.55
80401;BME280;69727;53.132;8.230;2023-09-19T05:51:47;100685.13;;;12.88;99.33
80401;BME280;69727;53.132;8.230;2023-09-19T05:54:12;100678.00;;;12.90;98.93
80401;BME280;69727;53.132;8.230;2023-09-19T05:56:38;100714.44;;;13.13;99.05
80401;BME280;69727;53.132;8.230;2023-09-19T05:59:07;100726.06;;;13.09;99.06
80401;BME280;69727;53.132;8.230;2023-09-19T06:01:32;100701.66;;;12.98;98.70
80401;BME280;69727;53.132;8.230;2023-09-19T06:03:59;100710.84;;;13.14;98.85
80401;BME280;69727;53.132;8.230;2023-09-19T06:06:25;100675.00;;;13.01;97.92
80401;BME280;69727;53.132;8.230;2023-09-19T06:08:51;100710.69;;;13.19;98.04
80401;BME280;69727;53.132;8.230;2023-09-19T06:11:16;100675.53;;;13.12;97.23
80401;BME280;69727;53.132;8.230;2023-09-19T06:13:45;100711.59;;;13.48;96.54
80401;BME280;69727;53.132;8.230;2023-09-19T06:16:12;100714.44;;;13.42;97.31
80401;BME280;69727;53.132;8.230;2023-09-19T06:18:38;100694.69;;;13.22;97.30
80401;BME280;69727;53.132;8.230;2023-09-19T06:21:03;100737.41;;;13.43;96.72
80401;BME280;69727;53.132;8.230;2023-09-19T06:23:35;100731.19;;;13.44;97.24
80401;BME280;69727;53.132;8.230;2023-09-19T06:26:01;100745.84;;;13.56;96.52
80401;BME280;69727;53.132;8.230;2023-09-19T06:28:26;100740.03;;;13.44;97.02
80401;BME280;69727;53.132;8.230;2023-09-19T06:30:53;100744.44;;;13.45;96.77
80401;BME280;69727;53.132;8.230;2023-09-19T06:33:19;100717.25;;;13.37;96.33
80401;BME280;69727;53.132;8.230;2023-09-19T06:35:46;100752.16;;;13.53;97.16
80401;BME280;69727;53.132;8.230;2023-09-19T06:38:12;100738.25;;;13.45;96.68
80401;BME280;69727;53.132;8.230;2023-09-19T06:40:38;100762.69;;;13.56;96.42
80401;BME280;69727;53.132;8.230;2023-09-19T06:43:05;100750.66;;;13.44;96.37
80401;BME280;69727;53.132;8.230;2023-09-19T06:45:30;100764.03;;;13.41;98.03
80401;BME280;69727;53.132;8.230;2023-09-19T06:47:57;100760.34;;;13.17;99.24
80401;BME280;69727;53.132;8.230;2023-09-19T06:50:26;100749.38;;;13.00;100.00
80401;BME280;69727;53.132;8.230;2023-09-19T06:52:55;100789.84;;;13.08;100.00
80401;BME280;69727;53.132;8.230;2023-09-19T06:55:32;100758.44;;;12.92;100.00
80401;BME280;69727;53.132;8.230;2023-09-19T06:57:57;100755.22;;;12.81;100.00
80401;BME280;69727;53.132;8.230;2023-09-19T07:00:24;100739.53;;;12.73;100.00
80401;BME280;69727;53.132;8.230;2023-09-19T07:03:03;100765.25;;;13.01;100.00
80401;BME280;69727;53.132;8.230;2023-09-19T07:05:30;100776.56;;;13.08;100.00
80401;BME280;69727;53.132;8.230;2023-09-19T07:07:59;100774.72;;;13.10;100.00
80401;BME280;69727;53.132;8.230;2023-09-19T07:10:26;100772.06;;;13.10;99.61
80401;BME280;69727;53.132;8.230;2023-09-19T07:13:05;100785.06;;;13.19;98.07
80401;BME280;69727;53.132;8.230;2023-09-19T07:15:34;100796.44;;;13.23;97.51
80401;BME280;69727;53.132;8.230;2023-09-19T07:18:02;100790.91;;;13.30;96.44
80401;BME280;69727;53.132;8.230;2023-09-19T07:20:27;100775.78;;;13.34;94.48
80401;BME280;69727;53.132;8.230;2023-09-19T07:22:56;100768.53;;;13.39;93.71
80401;BME280;69727;53.132;8.230;2023-09-19T07:25:25;100778.97;;;13.45;93.18
80401;BME280;69727;53.132;8.230;2023-09-19T07:27:50;100782.03;;;13.60;93.64
80401;BME280;69727;53.132;8.230;2023-09-19T07:30:16;100778.84;;;13.77;91.09
80401;BME280;69727;53.132;8.230;2023-09-19T07:32:42;100799.22;;;14.03;91.20
80401;BME280;69727;53.132;8.230;2023-09-19T07:35:08;100792.13;;;14.03;90.79
80401;BME280;69727;53.132;8.230;2023-09-19T07:37:34;100784.34;;;13.97;89.13
80401;BME280;69727;53.132;8.230;2023-09-19T07:40:00;100773.59;;;14.00;89.82
80401;BME280;69727;53.132;8.230;2023-09-19T07:42:35;100776.66;;;14.15;88.25
80401;BME280;69727;53.132;8.230;2023-09-19T07:45:02;100793.25;;;14.21;89.63
80401;BME280;69727;53.132;8.230;2023-09-19T07:47:28;100773.50;;;14.29;86.10
80401;BME280;69727;53.132;8.230;2023-09-19T07:49:55;100767.13;;;14.34;85.95
80401;BME280;69727;53.132;8.230;2023-09-19T07:52:21;100784.19;;;14.52;85.64
80401;BME280;69727;53.132;8.230;2023-09-19T07:54:48;100792.88;;;14.57;85.59
80401;BME280;69727;53.132;8.230;2023-09-19T07:57:14;100787.97;;;14.72;83.63
80401;BME280;69727;53.132;8.230;2023-09-19T07:59:40;100781.47;;;14.79;84.61
80401;BME280;69727;53.132;8.230;2023-09-19T08:02:10;100794.94;;;14.98;83.83
80401;BME280;69727;53.132;8.230;2023-09-19T08:04:44;100780.72;;;14.99;82.60
80401;BME280;69727;53.132;8.230;2023-09-19T08:07:12;100789.78;;;15.17;81.60
80401;BME280;69727;53.132;8.230;2023-09-19T08:09:38;100787.94;;;15.19;81.08
80401;BME280;69727;53.132;8.230;2023-09-19T08:12:05;100766.03;;;15.12;80.47
80401;BME280;69727;53.132;8.230;2023-09-19T08:14:30;100794.00;;;15.23;81.07
80401;BME280;69727;53.132;8.230;2023-09-19T08:16:58;100776.09;;;15.26;78.35
80401;BME280;69727;53.132;8.230;2023-09-19T08:19:24;100780.28;;;15.34;79.09
80401;BME280;69727;53.132;8.230;2023-09-19T08:21:57;100767.81;;;15.34;79.98
80401;BME280;69727;53.132;8.230;2023-09-19T08:24:29;100784.25;;;15.45;79.49
80401;BME280;69727;53.132;8.230;2023-09-19T08:26:56;100793.00;;;15.49;79.43
80401;BME280;69727;53.132;8.230;2023-09-19T08:29:25;100797.13;;;15.56;78.22
80401;BME280;69727;53.132;8.230;2023-09-19T08:31:56;100780.81;;;15.64;78.28
80401;BME280;69727;53.132;8.230;2023-09-19T08:34:23;100793.56;;;15.79;77.11
80401;BME280;69727;53.132;8.230;2023-09-19T08:36:53;100795.06;;;15.87;76.66
80401;BME280;69727;53.132;8.230;2023-09-19T08:39:22;100793.78;;;15.95;76.11
80401;BME280;69727;53.132;8.230;2023-09-19T08:41:47;100778.91;;;15.90;76.70
80401;BME280;69727;53.132;8.230;2023-09-19T08:44:13;100768.69;;;15.79;75.10
80401;BME280;69727;53.132;8.230;2023-09-19T08:46:41;100791.94;;;15.97;74.62
80401;BME280;69727;53.132;8.230;2023-09-19T08:51:46;100798.19;;;15.96;75.45
80401;BME280;69727;53.132;8.230;2023-09-19T08:54:24;100806.13;;;15.98;74.49
80401;BME280;69727;53.132;8.230;2023-09-19T08:56:53;100799.19;;;15.94;74.65
80401;BME280;69727;53.132;8.230;2023-09-19T08:59:22;100810.94;;;16.10;75.78
80401;BME280;69727;53.132;8.230;2023-09-19T09:01:51;100781.59;;;16.10;74.44
80401;BME280;69727;53.132;8.230;2023-09-19T09:04:19;100805.09;;;16.23;74.12
80401;BME280;69727;53.132;8.230;2023-09-19T09:06:45;100802.63;;;16.38;72.36
80401;BME280;69727;53.132;8.230;2023-09-19T09:09:14;100791.94;;;16.38;72.17
80401;BME280;69727;53.132;8.230;2023-09-19T09:11:40;100789.09;;;16.23;73.02
80401;BME280;69727;53.132;8.230;2023-09-19T09:14:06;100802.22;;;16.48;72.54
80401;BME280;69727;53.132;8.230;2023-09-19T09:16:32;100807.63;;;16.46;72.24
80401;BME280;69727;53.132;8.230;2023-09-19T09:18:58;100797.47;;;16.34;71.89
80401;BME280;69727;53.132;8.230;2023-09-19T09:21:27;100786.53;;;16.19;71.53
80401;BME280;69727;53.132;8.230;2023-09-19T09:23:53;100801.28;;;16.28;72.35
80401;BME280;69727;53.132;8.230;2023-09-19T09:26:51;100817.50;;;16.44;70.98
80401;BME280;69727;53.132;8.230;2023-09-19T09:29:44;100820.38;;;16.39;71.11
80401;BME280;69727;53.132;8.230;2023-09-19T09:32:19;100822.91;;;16.43;71.82
80401;BME280;69727;53.132;8.230;2023-09-19T09:34:46;100811.00;;;16.50;70.99
80401;BME280;69727;53.132;8.230;2023-09-19T09:37:17;100828.97;;;16.67;70.75
80401;BME280;69727;53.132;8.230;2023-09-19T09:39:56;100824.88;;;16.79;70.56
80401;BME280;69727;53.132;8.230;2023-09-19T09:45:18;100801.69;;;16.79;69.60
80401;BME280;69727;53.132;8.230;2023-09-19T09:48:00;100815.91;;;16.80;69.71
80401;BME280;69727;53.132;8.230;2023-09-19T09:50:31;100801.41;;;16.66;68.88
80401;BME280;69727;53.132;8.230;2023-09-19T09:53:26;100806.53;;;16.50;68.73
80401;BME280;69727;53.132;8.230;2023-09-19T09:58:36;100823.38;;;16.52;70.22
80401;BME280;69727;53.132;8.230;2023-09-19T10:01:03;100837.38;;;16.57;70.65
80401;BME280;69727;53.132;8.230;2023-09-19T10:03:38;100810.75;;;16.56;71.49
80401;BME280;69727;53.132;8.230;2023-09-19T10:06:16;100832.97;;;16.77;70.48
80401;BME280;69727;53.132;8.230;2023-09-19T10:09:07;100829.88;;;16.86;69.60
80401;BME280;69727;53.132;8.230;2023-09-19T10:11:47;100827.81;;;16.93;69.35
80401;BME280;69727;53.132;8.230;2023-09-19T10:14:25;100812.59;;;16.95;68.60
80401;BME280;69727;53.132;8.230;2023-09-19T10:16:55;100805.88;;;17.05;68.44
80401;BME280;69727;53.132;8.230;2023-09-19T10:19:46;100807.88;;;17.19;66.80
80401;BME280;69727;53.132;8.230;2023-09-19T10:22:17;100804.13;;;17.42;67.09
80401;BME280;69727;53.132;8.230;2023-09-19T10:24:48;100799.28;;;17.87;65.44
80401;BME280;69727;53.132;8.230;2023-09-19T10:27:15;100783.66;;;17.97;63.29
80401;BME280;69727;53.132;8.230;2023-09-19T10:29:43;100790.13;;;18.28;62.82
80401;BME280;69727;53.132;8.230;2023-09-19T10:32:10;100790.13;;;18.61;61.90
80401;BME280;69727;53.132;8.230;2023-09-19T10:34:43;100794.88;;;18.56;61.13
80401;BME280;69727;53.132;8.230;2023-09-19T10:37:12;100805.38;;;18.43;61.32
80401;BME280;69727;53.132;8.230;2023-09-19T10:39:39;100818.66;;;18.27;60.76
80401;BME280;69727;53.132;8.230;2023-09-19T10:42:07;100795.56;;;18.09;60.78
80401;BME280;69727;53.132;8.230;2023-09-19T10:44:37;100787.09;;;18.16;60.58
80401;BME280;69727;53.132;8.230;2023-09-19T10:47:07;100776.66;;;18.29;61.29
80401;BME280;69727;53.132;8.230;2023-09-19T10:49:34;100799.03;;;18.62;59.67
80401;BME280;69727;53.132;8.230;2023-09-19T10:52:00;100774.56;;;18.52;58.18
80401;BME280;69727;53.132;8.230;2023-09-19T10:54:31;100792.25;;;18.72;57.28
80401;BME280;69727;53.132;8.230;2023-09-19T10:56:58;100803.41;;;18.80;57.01
80401;BME280;69727;53.132;8.230;2023-09-19T10:59:25;100833.44;;;18.69;59.04
80401;BME280;69727;53.132;8.230;2023-09-19T11:01:55;100782.94;;;18.28;58.38
80401;BME280;69727;53.132;8.230;2023-09-19T11:04:33;100773.72;;;18.16;60.29
80401;BME280;69727;53.132;8.230;2023-09-19T11:07:04;100807.63;;;18.51;60.96
80401;BME280;69727;53.132;8.230;2023-09-19T11:09:52;100812.06;;;18.85;60.31
80401;BME280;69727;53.132;8.230;2023-09-19T11:16:04;100810.88;;;18.91;58.59
80401;BME280;69727;53.132;8.230;2023-09-19T11:26:42;100812.56;;;19.41;55.27
80401;BME280;69727;53.132;8.230;2023-09-19T11:29:31;100809.28;;;19.52;53.96
80401;BME280;69727;53.132;8.230;2023-09-19T11:31:57;100805.19;;;19.93;53.94
80401;BME280;69727;53.132;8.230;2023-09-19T11:39:50;100769.66;;;19.57;54.09
80401;BME280;69727;53.132;8.230;2023-09-19T11:42:48;100772.00;;;19.48;52.71
80401;BME280;69727;53.132;8.230;2023-09-19T11:48:15;100770.09;;;19.34;53.38
80401;BME280;69727;53.132;8.230;2023-09-19T11:50:47;100752.25;;;19.65;53.00
80401;BME280;69727;53.132;8.230;2023-09-19T11:53:14;100778.34;;;20.23;53.18
80401;BME280;69727;53.132;8.230;2023-09-19T11:55:41;100780.75;;;20.42;51.97
80401;BME280;69727;53.132;8.230;2023-09-19T11:58:08;100798.78;;;20.26;51.82
80401;BME280;69727;53.132;8.230;2023-09-19T12:00:37;100747.28;;;19.73;51.54
80401;BME280;69727;53.132;8.230;2023-09-19T12:03:08;100758.00;;;19.89;52.39
80401;BME280;69727;53.132;8.230;2023-09-19T12:05:37;100775.09;;;20.47;51.60
80401;BME280;69727;53.132;8.230;2023-09-19T12:08:07;100785.81;;;20.92;49.73
80401;BME280;69727;53.132;8.230;2023-09-19T12:10:48;100776.22;;;20.73;49.96
80401;BME280;69727;53.132;8.230;2023-09-19T12:13:18;100794.91;;;20.89;50.90
80401;BME280;69727;53.132;8.230;2023-09-19T12:15:44;100785.53;;;20.67;50.72
80401;BME280;69727;53.132;8.230;2023-09-19T12:18:34;100734.97;;;20.01;51.84
80401;BME280;69727;53.132;8.230;2023-09-19T12:21:01;100772.81;;;19.96;51.44
80401;BME280;69727;53.132;8.230;2023-09-19T12:23:30;100760.47;;;19.61;53.00
80401;BME280;69727;53.132;8.230;2023-09-19T12:25:55;100757.06;;;19.90;52.83
80401;BME280;69727;53.132;8.230;2023-09-19T12:28:27;100754.78;;;20.43;52.48
80401;BME280;69727;53.132;8.230;2023-09-19T12:30:55;100728.31;;;20.37;51.55
80401;BME280;69727;53.132;8.230;2023-09-19T12:33:21;100755.47;;;20.75;52.23
80401;BME280;69727;53.132;8.230;2023-09-19T12:35:50;100732.72;;;20.81;50.65
80401;BME280;69727;53.132;8.230;2023-09-19T12:38:27;100743.53;;;21.22;50.58
80401;BME280;69727;53.132;8.230;2023-09-19T12:41:01;100751.53;;;21.37;50.33
80401;BME280;69727;53.132;8.230;2023-09-19T12:43:30;100728.63;;;21.17;49.80
80401;BME280;69727;53.132;8.230;2023-09-19T12:45:58;100740.19;;;21.04;50.67
80401;BME280;69727;53.132;8.230;2023-09-19T12:48:26;100726.84;;;20.45;51.28
80401;BME280;69727;53.132;8.230;2023-09-19T12:53:44;100726.66;;;20.34;52.64
80401;BME280;69727;53.132;8.230;2023-09-19T12:56:15;100716.84;;;20.19;53.80
80401;BME280;69727;53.132;8.230;2023-09-19T12:58:57;100749.34;;;20.14;53.51
80401;BME280;69727;53.132;8.230;2023-09-19T13:01:24;100701.91;;;20.29;54.04
80401;BME280;69727;53.132;8.230;2023-09-19T13:04:18;100709.13;;;20.28;53.90
80401;BME280;69727;53.132;8.230;2023-09-19T13:06:47;100700.94;;;20.15;53.50
80401;BME280;69727;53.132;8.230;2023-09-19T13:09:17;100710.63;;;20.04;53.86
80401;BME280;69727;53.132;8.230;2023-09-19T13:11:43;100698.88;;;19.90;53.99
80401;BME280;69727;53.132;8.230;2023-09-19T13:14:22;100709.81;;;19.87;55.05
80401;BME280;69727;53.132;8.230;2023-09-19T13:17:06;100702.75;;;19.70;54.03
80401;BME280;69727;53.132;8.230;2023-09-19T13:19:42;100722.25;;;19.58;54.34
80401;BME280;69727;53.132;8.230;2023-09-19T13:22:42;100722.88;;;19.47;54.87
80401;BME280;69727;53.132;8.230;2023-09-19T13:25:15;100698.59;;;19.34;54.95
80401;BME280;69727;53.132;8.230;2023-09-19T13:27:53;100706.28;;;19.40;55.91
80401;BME280;69727;53.132;8.230;2023-09-19T13:30:22;100729.09;;;19.48;55.69
80401;BME280;69727;53.132;8.230;2023-09-19T13:32:48;100711.81;;;19.37;55.49
80401;BME280;69727;53.132;8.230;2023-09-19T13:35:15;100659.78;;;19.25;55.41
80401;BME280;69727;53.132;8.230;2023-09-19T13:37:41;100686.13;;;19.63;54.42
80401;BME280;69727;53.132;8.230;2023-09-19T13:40:11;100679.19;;;19.75;54.26
80401;BME280;69727;53.132;8.230;2023-09-19T13:42:37;100650.72;;;19.73;54.10
80401;BME280;69727;53.132;8.230;2023-09-19T13:45:04;100678.97;;;20.09;53.30
80401;BME280;69727;53.132;8.230;2023-09-19T13:47:32;100698.94;;;20.05;53.34
80401;BME280;69727;53.132;8.230;2023-09-19T13:49:59;100650.03;;;19.69;53.44
80401;BME280;69727;53.132;8.230;2023-09-19T13:52:26;100667.97;;;19.69;54.00
80401;BME280;69727;53.132;8.230;2023-09-19T13:54:54;100669.19;;;19.63;55.20
80401;BME280;69727;53.132;8.230;2023-09-19T13:57:24;100647.69;;;19.49;55.18
80401;BME280;69727;53.132;8.230;2023-09-19T13:59:51;100671.38;;;19.56;55.89
80401;BME280;69727;53.132;8.230;2023-09-19T14:02:16;100677.03;;;19.52;56.79
80401;BME280;69727;53.132;8.230;2023-09-19T14:04:43;100656.47;;;19.36;56.61